createdAt,value
2023-04-01T00:02:08.599Z,97360.31
2023-04-01T00:04:38.351Z,97342.53
2023-04-01T00:07:06.417Z,97358.22
2023-04-01T00:09:34.308Z,97341.69
2023-04-01T00:12:02.066Z,97358.72
2023-04-01T00:14:30.694Z,97360.84
2023-04-01T00:16:58.585Z,97362.63
2023-04-01T00:19:26.328Z,97360.09
2023-04-01T00:21:55.688Z,97356.53
2023-04-01T00:24:24.022Z,97358.94
2023-04-01T00:26:52.204Z,97351.78
2023-04-01T00:29:20.410Z,97342.44
2023-04-01T00:31:49.516Z,97341.69
2023-04-01T00:34:17.701Z,97344.31
2023-04-01T00:36:45.861Z,97346.75
2023-04-01T00:39:14.953Z,97354.44
2023-04-01T00:41:42.817Z,97343.91
2023-04-01T00:44:17.397Z,97349.78
2023-04-01T00:46:45.069Z,97351.78
2023-04-01T00:49:12.827Z,97336.75
2023-04-01T00:51:41.317Z,97346.31
2023-04-01T00:54:09.523Z,97346.31
2023-04-01T00:56:40.671Z,97341.16
2023-04-01T00:59:11.819Z,97350.13
2023-04-01T01:01:39.780Z,97345.38
2023-04-01T01:04:07.774Z,97347.91
2023-04-01T01:06:42.636Z,97345.06
2023-04-01T01:09:17.300Z,97345.78
2023-04-01T01:11:50.518Z,97336.00
2023-04-01T01:14:30.063Z,97339.28
2023-04-01T01:17:01.764Z,97336.84
2023-04-01T01:19:49.334Z,97324.00
2023-04-01T01:22:38.502Z,97334.53
2023-04-01T01:25:20.967Z,97337.16
2023-04-01T01:27:58.144Z,97332.00
2023-04-01T01:30:38.388Z,97330.75
2023-04-01T01:33:35.094Z,97333.78
2023-04-01T01:36:07.310Z,97334.00
2023-04-01T01:38:36.294Z,97334.75
2023-04-01T01:41:05.259Z,97327.59
2023-04-01T01:43:34.873Z,97329.69
2023-04-01T01:46:05.569Z,97313.50
2023-04-01T01:48:36.540Z,97326.44
2023-04-01T01:51:06.066Z,97326.75
2023-04-01T01:53:33.834Z,97322.34
2023-04-01T01:56:01.697Z,97324.88
2023-04-01T01:58:32.028Z,97318.75
2023-04-01T02:01:01.966Z,97323.06
2023-04-01T02:03:32.768Z,97326.97
2023-04-01T02:06:02.075Z,97328.22
2023-04-01T02:08:35.037Z,97320.53
2023-04-01T02:11:04.437Z,97315.59
2023-04-01T02:13:35.452Z,97319.19
2023-04-01T02:16:09.760Z,97321.72
2023-04-01T02:18:39.110Z,97329.69
2023-04-01T02:21:07.273Z,97328.34
2023-04-01T02:23:37.949Z,97324.53
2023-04-01T02:26:07.661Z,97324.66
2023-04-01T02:28:36.760Z,97328.31
2023-04-01T02:31:05.084Z,97318.66
2023-04-01T02:33:33.214Z,97333.59
2023-04-01T02:36:01.086Z,97327.81
2023-04-01T02:38:28.853Z,97316.97
2023-04-01T02:41:01.759Z,97312.56
2023-04-01T02:43:29.689Z,97322.03
2023-04-01T02:45:57.285Z,97313.72
2023-04-01T02:48:24.897Z,97312.34
2023-04-01T02:50:52.470Z,97316.44
2023-04-01T02:53:20.071Z,97317.81
2023-04-01T02:55:47.665Z,97318.88
2023-04-01T02:58:16.614Z,97305.09
2023-04-01T03:00:44.247Z,97318.03
2023-04-01T03:03:13.811Z,97310.56
2023-04-01T03:05:41.610Z,97317.72
2023-04-01T03:08:09.356Z,97316.44
2023-04-01T03:10:36.931Z,97307.41
2023-04-01T03:13:04.671Z,97312.88
2023-04-01T03:15:33.820Z,97304.88
2023-04-01T03:18:01.735Z,97308.66
2023-04-01T03:20:29.406Z,97312.88
2023-04-01T03:22:56.979Z,97313.81
2023-04-01T03:25:24.833Z,97306.13
2023-04-01T03:27:52.551Z,97303.41
2023-04-01T03:30:20.208Z,97309.81
2023-04-01T03:32:49.155Z,97307.59
2023-04-01T03:35:16.818Z,97314.22
2023-04-01T03:37:44.553Z,97312.66
2023-04-01T03:40:13.063Z,97314.97
2023-04-01T03:42:40.754Z,97312.75
2023-04-01T03:45:09.014Z,97313.50
2023-04-01T03:47:36.947Z,97313.09
2023-04-01T03:50:07.138Z,97308.88
2023-04-01T03:52:34.789Z,97308.25
2023-04-01T03:55:02.969Z,97305.72
2023-04-01T03:57:33.221Z,97311.59
2023-04-01T04:00:01.007Z,97308.25
2023-04-01T04:02:28.726Z,97313.09
2023-04-01T04:04:56.350Z,97315.41
2023-04-01T04:07:25.355Z,97304.13
2023-04-01T04:09:52.998Z,97308.44
2023-04-01T04:12:20.612Z,97314.44
2023-04-01T04:14:48.138Z,97314.44
2023-04-01T04:17:17.231Z,97319.59
2023-04-01T04:19:45.470Z,97321.19
2023-04-01T04:22:13.134Z,97319.28
2023-04-01T04:24:42.169Z,97311.28
2023-04-01T04:27:09.836Z,97318.44
2023-04-01T04:29:37.389Z,97314.44
2023-04-01T04:32:05.176Z,97320.34
2023-04-01T04:34:33.006Z,97319.91
2023-04-01T04:37:00.639Z,97314.34
2023-04-01T04:39:28.488Z,97311.50
2023-04-01T04:41:57.623Z,97314.22
2023-04-01T04:44:25.189Z,97316.84
2023-04-01T04:46:52.959Z,97308.66
2023-04-01T04:49:20.733Z,97324.13
2023-04-01T04:51:49.040Z,97309.28
2023-04-01T04:54:16.600Z,97318.09
2023-04-01T04:56:44.315Z,97307.28
2023-04-01T04:59:13.480Z,97306.34
2023-04-01T05:01:41.384Z,97306.53
2023-04-01T05:04:08.980Z,97308.97
2023-04-01T05:06:36.543Z,97319.91
2023-04-01T05:09:04.584Z,97326.94
2023-04-01T05:11:32.140Z,97313.38
2023-04-01T05:13:59.709Z,97321.47
2023-04-01T05:16:28.724Z,97323.25
2023-04-01T05:18:56.350Z,97323.38
2023-04-01T05:21:23.902Z,97321.47
2023-04-01T05:23:51.536Z,97315.78
2023-04-01T05:26:19.112Z,97320.63
2023-04-01T05:28:46.704Z,97312.63
2023-04-01T05:31:14.349Z,97316.00
2023-04-01T05:33:43.276Z,97320.09
2023-04-01T05:36:12.781Z,97318.19
2023-04-01T05:38:40.983Z,97321.56
2023-04-01T05:41:08.537Z,97318.63
2023-04-01T05:43:38.038Z,97313.38
2023-04-01T05:46:05.824Z,97312.94
2023-04-01T05:48:35.706Z,97308.75
2023-04-01T05:51:05.091Z,97307.78
2023-04-01T05:53:33.121Z,97306.44
2023-04-01T05:56:04.225Z,97305.38
2023-04-01T05:58:32.047Z,97301.72
2023-04-01T06:01:10.249Z,97304.75
2023-04-01T06:03:41.794Z,97303.28
2023-04-01T06:06:16.531Z,97300.88
2023-04-01T06:08:44.749Z,97306.13
2023-04-01T06:11:24.701Z,97289.00
2023-04-01T06:14:09.601Z,97310.66
2023-04-01T06:16:46.676Z,97313.59
2023-04-01T06:19:24.642Z,97305.09
2023-04-01T06:22:25.968Z,97315.91
2023-04-01T06:25:19.905Z,97316.84
2023-04-01T06:28:03.186Z,97319.78
2023-04-01T06:30:42.086Z,97313.50
2023-04-01T06:33:35.429Z,97320.13
2023-04-01T06:36:14.017Z,97312.22
2023-04-01T06:38:54.837Z,97320.13
2023-04-01T06:41:48.756Z,97315.19
2023-04-01T06:44:20.386Z,97316.03
2023-04-01T06:46:50.187Z,97302.56
2023-04-01T06:49:27.676Z,97312.13
2023-04-01T06:52:02.257Z,97315.59
2023-04-01T06:54:33.835Z,97312.56
2023-04-01T06:57:07.489Z,97309.06
2023-04-01T06:59:35.873Z,97312.44
2023-04-01T07:02:08.726Z,97318.63
2023-04-01T07:04:39.256Z,97320.41
2023-04-01T07:07:12.417Z,97314.19
2023-04-01T07:09:43.668Z,97319.88
2023-04-01T07:12:17.858Z,97323.25
2023-04-01T07:14:46.568Z,97327.56
2023-04-01T07:17:17.106Z,97321.31
2023-04-01T07:19:47.826Z,97334.59
2023-04-01T07:22:25.484Z,97330.47
2023-04-01T07:24:53.677Z,97336.59
2023-04-01T07:27:22.702Z,97334.47
2023-04-01T07:29:50.632Z,97332.34
2023-04-01T07:32:24.232Z,97330.22
2023-04-01T07:35:05.432Z,97332.94
2023-04-01T07:37:38.388Z,97334.41
2023-04-01T07:40:15.711Z,97320.28
2023-04-01T07:42:56.858Z,97329.41
2023-04-01T07:45:27.899Z,97331.94
2023-04-01T07:48:04.698Z,97327.13
2023-04-01T07:50:33.872Z,97331.09
2023-04-01T07:53:10.760Z,97335.41
2023-04-01T07:55:43.124Z,97342.81
2023-04-01T07:58:16.523Z,97348.69
2023-04-01T08:00:48.801Z,97349.03
2023-04-01T08:03:31.187Z,97351.81
2023-04-01T08:06:01.373Z,97358.00
2023-04-01T08:08:38.588Z,97349.53
2023-04-01T08:11:14.039Z,97350.31
2023-04-01T08:13:48.166Z,97362.09
2023-04-01T08:16:19.909Z,97359.34
2023-04-01T08:18:55.610Z,97364.94
2023-04-01T08:21:26.347Z,97359.00
2023-04-01T08:23:56.998Z,97367.75
2023-04-01T08:26:30.561Z,97365.34
2023-04-01T08:29:03.870Z,97368.91
2023-04-01T08:31:35.407Z,97371.72
2023-04-01T08:34:05.808Z,97369.38
2023-04-01T08:36:36.405Z,97358.28
2023-04-01T08:39:07.935Z,97379.63
2023-04-01T08:41:59.331Z,97374.81
2023-04-01T08:44:40.074Z,97372.38
2023-04-01T08:47:19.872Z,97374.56
2023-04-01T08:49:58.660Z,97378.50
2023-04-01T08:52:47.163Z,97378.16
2023-04-01T08:55:33.648Z,97387.31
2023-04-01T08:58:20.587Z,97386.88
2023-04-01T09:00:53.939Z,97382.72
2023-04-01T09:03:44.012Z,97388.50
2023-04-01T09:06:37.473Z,97392.38
2023-04-01T09:09:26.901Z,97394.16
2023-04-01T09:12:28.431Z,97394.94
2023-04-01T09:15:36.093Z,97391.97
2023-04-01T09:18:16.056Z,97402.13
2023-04-01T09:20:53.598Z,97400.56
2023-04-01T09:24:00.183Z,97403.03
2023-04-01T09:26:40.059Z,97403.88
2023-04-01T09:29:19.542Z,97397.13
2023-04-01T09:31:56.183Z,97406.16
2023-04-01T09:34:53.225Z,97398.81
2023-04-01T09:37:22.805Z,97398.16
2023-04-01T09:40:17.930Z,97405.31
2023-04-01T09:42:47.527Z,97413.63
2023-04-01T09:45:36.285Z,97407.91
2023-04-01T09:48:14.660Z,97418.72
2023-04-01T09:50:52.580Z,97418.06
2023-04-01T09:53:30.498Z,97423.84
2023-04-01T09:56:26.363Z,97427.94
2023-04-01T09:59:22.783Z,97425.00
2023-04-01T10:02:25.807Z,97423.09
2023-04-01T10:05:26.565Z,97422.75
2023-04-01T10:08:31.250Z,97430.53
2023-04-01T10:11:15.570Z,97426.22
2023-04-01T10:14:17.278Z,97428.09
2023-04-01T10:17:06.529Z,97429.47
2023-04-01T10:20:01.931Z,97429.94
2023-04-01T10:22:44.690Z,97439.91
2023-04-01T10:25:27.572Z,97441.38
2023-04-01T10:28:09.527Z,97433.78
2023-04-01T10:31:09.432Z,97438.34
2023-04-01T10:34:14.698Z,97441.56
2023-04-01T10:36:50.479Z,97448.75
2023-04-01T10:39:40.801Z,97438.38
2023-04-01T10:42:47.651Z,97438.13
2023-04-01T10:45:54.657Z,97438.56
2023-04-01T10:48:36.921Z,97444.13
2023-04-01T10:51:29.169Z,97437.16
2023-04-01T10:54:33.424Z,97436.69
2023-04-01T10:57:02.064Z,97439.34
2023-04-01T10:59:38.413Z,97438.75
2023-04-01T11:02:42.044Z,97445.59
2023-04-01T11:05:45.226Z,97446.22
2023-04-01T11:08:57.658Z,97446.47
2023-04-01T11:12:06.479Z,97449.00
2023-04-01T11:15:07.519Z,97451.50
2023-04-01T11:18:04.600Z,97449.34
2023-04-01T11:20:44.739Z,97450.31
2023-04-01T11:23:31.650Z,97441.19
2023-04-01T11:26:05.699Z,97449.84
2023-04-01T11:28:53.037Z,97444.91
2023-04-01T11:31:39.164Z,97453.00
2023-04-01T11:34:17.435Z,97448.44
2023-04-01T11:36:53.106Z,97445.59
2023-04-01T11:39:26.744Z,97454.25
2023-04-01T11:42:01.561Z,97442.22
2023-04-01T11:44:31.145Z,97449.84
2023-04-01T11:47:14.638Z,97450.06
2023-04-01T11:49:51.427Z,97447.69
2023-04-01T11:52:30.889Z,97452.34
2023-04-01T11:55:08.063Z,97454.38
2023-04-01T11:57:48.980Z,97457.97
2023-04-01T12:00:36.964Z,97443.94
2023-04-01T12:03:19.217Z,97460.38
2023-04-01T12:05:50.538Z,97471.53
2023-04-01T12:08:30.374Z,97480.09
2023-04-01T12:11:03.376Z,97477.56
2023-04-01T12:13:37.923Z,97473.97
2023-04-01T12:16:44.400Z,97483.94
2023-04-01T12:19:18.927Z,97482.75
2023-04-01T12:21:56.887Z,97491.88
2023-04-01T12:24:47.937Z,97493.81
2023-04-01T12:27:29.996Z,97488.03
2023-04-01T12:30:30.325Z,97493.94
2023-04-01T12:33:31.784Z,97504.38
2023-04-01T12:36:08.573Z,97508.69
2023-04-01T12:38:46.809Z,97514.13
2023-04-01T12:41:21.687Z,97510.38
2023-04-01T12:44:18.781Z,97513.03
2023-04-01T12:47:13.539Z,97517.97
2023-04-01T12:49:57.796Z,97505.47
2023-04-01T12:52:36.666Z,97506.41
2023-04-01T12:55:33.400Z,97510.50
2023-04-01T12:58:25.933Z,97511.22
2023-04-01T13:01:09.651Z,97507.13
2023-04-01T13:03:55.501Z,97513.38
2023-04-01T13:06:29.854Z,97509.41
2023-04-01T13:09:06.568Z,97515.78
2023-04-01T13:11:43.982Z,97517.59
2023-04-01T13:14:33.943Z,97513.50
2023-04-01T13:17:09.034Z,97517.59
2023-04-01T13:19:43.251Z,97526.59
2023-04-01T13:22:18.130Z,97517.94
2023-04-01T13:24:51.193Z,97524.69
2023-04-01T13:27:23.442Z,97522.75
2023-04-01T13:30:02.241Z,97516.28
2023-04-01T13:35:17.577Z,97524.91
2023-04-01T13:37:56.551Z,97529.59
2023-04-01T13:40:42.761Z,97526.00
2023-04-01T13:43:17.582Z,97536.34
2023-04-01T13:46:04.423Z,97530.44
2023-04-01T13:48:37.047Z,97521.78
2023-04-01T13:51:37.552Z,97534.41
2023-04-01T13:54:28.131Z,97533.69
2023-04-01T13:57:04.392Z,97527.66
2023-04-01T13:59:50.495Z,97540.75
2023-04-01T14:02:39.528Z,97545.09
2023-04-01T14:05:17.746Z,97545.94
2023-04-01T14:07:53.946Z,97549.66
2023-04-01T14:10:26.539Z,97549.19
2023-04-01T14:13:00.711Z,97553.66
2023-04-01T14:15:41.490Z,97553.75
2023-04-01T14:18:21.854Z,97549.56
2023-04-01T14:20:55.401Z,97547.53
2023-04-01T14:23:41.154Z,97554.25
2023-04-01T14:26:37.126Z,97552.09
2023-04-01T14:29:13.509Z,97551.13
2023-04-01T14:31:58.258Z,97565.78
2023-04-01T14:34:35.150Z,97559.41
2023-04-01T14:37:13.995Z,97565.66
2023-04-01T14:40:05.549Z,97565.44
2023-04-01T14:42:43.885Z,97574.09
2023-04-01T14:45:27.650Z,97574.69
2023-04-01T14:48:00.357Z,97570.59
2023-04-01T14:50:30.207Z,97582.75
2023-04-01T14:53:00.570Z,97571.91
2023-04-01T14:55:34.243Z,97576.47
2023-04-01T14:58:13.254Z,97584.53
2023-04-01T15:00:51.167Z,97581.28
2023-04-01T15:03:24.325Z,97577.06
2023-04-01T15:05:54.531Z,97587.53
2023-04-01T15:08:25.342Z,97579.56
2023-04-01T15:11:09.822Z,97581.91
2023-04-01T15:13:53.079Z,97581.16
2023-04-01T15:16:25.866Z,97586.69
2023-04-01T15:19:03.186Z,97593.56
2023-04-01T15:21:40.687Z,97603.06
2023-04-01T15:24:09.805Z,97604.50
2023-04-01T15:27:09.208Z,97608.34
2023-04-01T15:29:45.793Z,97609.06
2023-04-01T15:32:19.485Z,97615.91
2023-04-01T15:34:54.735Z,97605.63
2023-04-01T15:37:28.229Z,97615.50
2023-04-01T15:39:59.852Z,97616.00
2023-04-01T15:42:36.869Z,97619.00
2023-04-01T15:45:16.701Z,97620.06
2023-04-01T15:47:48.233Z,97640.47
2023-04-01T15:50:40.618Z,97628.72
2023-04-01T15:53:20.905Z,97630.56
2023-04-01T15:55:51.278Z,97638.28
2023-04-01T15:58:37.792Z,97638.00
2023-04-01T16:01:12.385Z,97639.41
2023-04-01T16:03:42.593Z,97629.88
2023-04-01T16:06:20.882Z,97644.69
2023-04-01T16:09:08.711Z,97648.16
2023-04-01T16:11:43.201Z,97652.94
2023-04-01T16:14:19.022Z,97652.44
2023-04-01T16:17:04.572Z,97656.66
2023-04-01T16:19:39.454Z,97670.16
2023-04-01T16:22:11.922Z,97667.06
2023-04-01T16:24:44.215Z,97675.72
2023-04-01T16:27:15.170Z,97678.13
2023-04-01T16:29:48.299Z,97685.16
2023-04-01T16:32:43.413Z,97682.22
2023-04-01T16:35:25.675Z,97694.56
2023-04-01T16:37:56.899Z,97688.16
2023-04-01T16:40:28.605Z,97692.25
2023-04-01T16:42:58.342Z,97698.91
2023-04-01T16:45:34.806Z,97693.72
2023-04-01T16:48:09.456Z,97704.97
2023-04-01T16:50:47.730Z,97706.19
2023-04-01T16:53:20.186Z,97704.34
2023-04-01T16:55:51.773Z,97705.09
2023-04-01T16:58:25.425Z,97707.66
2023-04-01T17:00:56.375Z,97713.38
2023-04-01T17:03:28.834Z,97720.84
2023-04-01T17:06:26.404Z,97726.03
2023-04-01T17:09:32.148Z,97717.69
2023-04-01T17:12:06.076Z,97715.38
2023-04-01T17:14:38.295Z,97724.34
2023-04-01T17:17:19.430Z,97721.50
2023-04-01T17:20:02.607Z,97728.88
2023-04-01T17:22:34.272Z,97734.28
2023-04-01T17:25:15.014Z,97734.47
2023-04-01T17:27:52.441Z,97734.91
2023-04-01T17:30:33.158Z,97735.13
2023-04-01T17:33:33.805Z,97747.03
2023-04-01T17:36:06.749Z,97751.78
2023-04-01T17:38:59.097Z,97748.00
2023-04-01T17:41:33.898Z,97750.84
2023-04-01T17:44:11.449Z,97754.84
2023-04-01T17:46:52.626Z,97760.94
2023-04-01T17:49:26.981Z,97762.00
2023-04-01T17:51:58.955Z,97763.47
2023-04-01T17:54:32.283Z,97773.16
2023-04-01T17:57:16.416Z,97785.25
2023-04-01T17:59:53.016Z,97784.31
2023-04-01T18:02:26.520Z,97791.03
2023-04-01T18:05:21.879Z,97791.69
2023-04-01T18:08:14.103Z,97800.66
2023-04-01T18:10:54.244Z,97792.22
2023-04-01T18:13:36.468Z,97807.78
2023-04-01T18:16:16.927Z,97806.25
2023-04-01T18:18:51.885Z,97816.44
2023-04-01T18:21:26.130Z,97818.00
2023-04-01T18:24:02.321Z,97812.63
2023-04-01T18:26:33.056Z,97823.28
2023-04-01T18:29:06.495Z,97824.56
2023-04-01T18:31:37.966Z,97824.97
2023-04-01T18:34:10.001Z,97828.09
2023-04-01T18:36:45.086Z,97838.06
2023-04-01T18:39:15.586Z,97833.28
2023-04-01T18:41:52.443Z,97843.72
2023-04-01T18:44:30.254Z,97844.50
2023-04-01T18:47:04.868Z,97850.41
2023-04-01T18:49:37.856Z,97852.69
2023-04-01T18:52:11.721Z,97854.66
2023-04-01T18:54:44.683Z,97859.84
2023-04-01T18:57:14.997Z,97854.84
2023-04-01T18:59:47.604Z,97867.94
2023-04-01T19:02:28.755Z,97877.81
2023-04-01T19:05:03.499Z,97880.25
2023-04-01T19:07:47.628Z,97891.41
2023-04-01T19:10:18.921Z,97892.53
2023-04-01T19:12:53.860Z,97888.13
2023-04-01T19:15:29.903Z,97902.97
2023-04-01T19:18:25.006Z,97900.63
2023-04-01T19:20:58.241Z,97902.69
2023-04-01T19:24:04.620Z,97904.13
2023-04-01T19:26:35.906Z,97910.13
2023-04-01T19:29:08.300Z,97909.28
2023-04-01T19:31:46.523Z,97912.81
2023-04-01T19:34:24.899Z,97916.97
2023-04-01T19:36:56.023Z,97925.81
2023-04-01T19:39:36.202Z,97927.31
2023-04-01T19:42:09.265Z,97929.47
2023-04-01T19:44:44.153Z,97929.94
2023-04-01T19:47:20.001Z,97929.28
2023-04-01T19:49:55.551Z,97929.28
2023-04-01T19:52:28.610Z,97933.69
2023-04-01T19:55:01.794Z,97939.41
2023-04-01T19:57:38.136Z,97942.13
2023-04-01T20:00:11.713Z,97945.25
2023-04-01T20:02:56.124Z,97941.19
2023-04-01T20:05:35.531Z,97952.19
2023-04-01T20:08:09.963Z,97954.00
2023-04-01T20:10:41.460Z,97956.34
2023-04-01T20:13:16.687Z,97962.53
2023-04-01T20:15:47.033Z,97968.56
2023-04-01T20:18:19.935Z,97973.63
2023-04-01T20:20:55.757Z,97975.31
2023-04-01T20:23:35.513Z,97967.31
2023-04-01T20:26:06.402Z,97970.16
2023-04-01T20:28:44.473Z,97968.50
2023-04-01T20:31:28.290Z,97982.34
2023-04-01T20:34:26.748Z,97986.75
2023-04-01T20:37:02.639Z,97995.00
2023-04-01T20:40:05.189Z,97995.09
2023-04-01T20:42:41.363Z,98003.66
2023-04-01T20:45:28.571Z,97999.16
2023-04-01T20:48:09.694Z,98002.88
2023-04-01T20:50:40.293Z,98008.31
2023-04-01T20:53:14.133Z,98011.88
2023-04-01T20:56:00.988Z,98013.84
2023-04-01T20:58:32.954Z,98010.28
2023-04-01T21:01:07.231Z,98011.97
2023-04-01T21:03:45.938Z,98014.97
2023-04-01T21:06:24.966Z,98012.69
2023-04-01T21:09:07.234Z,98025.38
2023-04-01T21:11:38.859Z,98026.50
2023-04-01T21:14:27.313Z,98033.38
2023-04-01T21:16:58.940Z,98032.78
2023-04-01T21:19:35.487Z,98033.63
2023-04-01T21:22:20.298Z,98034.91
2023-04-01T21:25:05.581Z,98044.06
2023-04-01T21:27:57.400Z,98035.75
2023-04-01T21:30:34.460Z,98042.72
2023-04-01T21:33:13.538Z,98047.47
2023-04-01T21:35:45.670Z,98048.66
2023-04-01T21:38:23.750Z,98054.91
2023-04-01T21:41:12.732Z,98063.56
2023-04-01T21:43:59.304Z,98070.19
2023-04-01T21:46:47.100Z,98074.34
2023-04-01T21:49:35.363Z,98067.38
2023-04-01T21:52:24.755Z,98079.09
2023-04-01T21:55:13.717Z,98081.47
2023-04-01T21:58:17.934Z,98087.22
2023-04-01T22:00:51.018Z,98082.16
2023-04-01T22:03:34.345Z,98090.47
2023-04-01T22:06:13.552Z,98092.41
2023-04-01T22:08:52.444Z,98089.25
2023-04-01T22:11:33.274Z,98093.25
2023-04-01T22:14:07.546Z,98090.63
2023-04-01T22:16:40.654Z,98098.09
2023-04-01T22:19:14.930Z,98088.59
2023-04-01T22:21:53.215Z,98097.25
2023-04-01T22:24:25.953Z,98096.72
2023-04-01T22:26:58.621Z,98101.22
2023-04-01T22:29:33.021Z,98101.13
2023-04-01T22:32:04.828Z,98104.19
2023-04-01T22:34:38.539Z,98101.03
2023-04-01T22:37:13.003Z,98098.66
2023-04-01T22:39:49.285Z,98104.59
2023-04-01T22:42:28.329Z,98099.44
2023-04-01T22:45:04.809Z,98099.50
2023-04-01T22:47:40.396Z,98111.63
2023-04-01T22:50:14.167Z,98111.88
2023-04-01T22:52:45.180Z,98108.75
2023-04-01T22:55:16.008Z,98112.97
2023-04-01T22:57:48.086Z,98122.41
2023-04-01T23:00:20.807Z,98113.31
2023-04-01T23:03:01.395Z,98128.22
2023-04-01T23:05:33.495Z,98132.31
2023-04-01T23:08:04.016Z,98128.91
2023-04-01T23:10:42.054Z,98135.88
2023-04-01T23:13:15.211Z,98134.41
2023-04-01T23:15:44.927Z,98131.53
2023-04-01T23:18:22.680Z,98130.69
2023-04-01T23:21:06.602Z,98139.50
2023-04-01T23:23:43.303Z,98144.59
2023-04-01T23:26:14.997Z,98150.88
2023-04-01T23:28:48.929Z,98149.94
2023-04-01T23:31:40.019Z,98147.16
2023-04-01T23:34:26.649Z,98150.03
2023-04-01T23:36:56.391Z,98161.91
2023-04-01T23:39:27.958Z,98165.78
2023-04-01T23:41:57.592Z,98165.00
2023-04-01T23:44:27.415Z,98156.44
2023-04-01T23:46:58.021Z,98168.50
2023-04-01T23:49:29.434Z,98164.09
2023-04-01T23:51:59.830Z,98166.25
2023-04-01T23:54:33.038Z,98171.19
2023-04-01T23:57:03.098Z,98171.75
2023-04-01T23:59:33.169Z,98183.25
